sensor_id;sensor_type;location;lat;lon;timestamp;P1;durP1;ratioP1;P2;durP2;ratioP2
51556;SDS011;38766;53.194;5.532;2023-12-14T00:01:21;11.75;;;4.72;;
51556;SDS011;38766;53.194;5.532;2023-12-14T00:03:47;11.65;;;5.72;;
51556;SDS011;38766;53.194;5.532;2023-12-14T00:06:13;14.43;;;5.05;;
51556;SDS011;38766;53.194;5.532;2023-12-14T00:08:39;11.90;;;4.88;;
51556;SDS011;38766;53.194;5.532;2023-12-14T00:11:08;12.45;;;5.57;;
51556;SDS011;38766;53.194;5.532;2023-12-14T00:13:35;12.18;;;4.90;;
51556;SDS011;38766;53.194;5.532;2023-12-14T00:16:01;15.63;;;5.32;;
51556;SDS011;38766;53.194;5.532;2023-12-14T00:18:27;14.38;;;5.40;;
51556;SDS011;38766;53.194;5.532;2023-12-14T00:20:53;10.68;;;4.88;;
51556;SDS011;38766;53.194;5.532;2023-12-14T00:23:19;8.73;;;5.13;;
51556;SDS011;38766;53.194;5.532;2023-12-14T00:25:45;9.52;;;4.80;;
51556;SDS011;38766;53.194;5.532;2023-12-14T00:28:11;9.50;;;5.13;;
51556;SDS011;38766;53.194;5.532;2023-12-14T00:30:37;10.75;;;5.68;;
51556;SDS011;38766;53.194;5.532;2023-12-14T00:33:02;9.95;;;5.47;;
51556;SDS011;38766;53.194;5.532;2023-12-14T00:35:28;9.68;;;5.03;;
51556;SDS011;38766;53.194;5.532;2023-12-14T00:37:54;9.02;;;5.43;;
51556;SDS011;38766;53.194;5.532;2023-12-14T00:40:19;9.52;;;5.00;;
51556;SDS011;38766;53.194;5.532;2023-12-14T00:42:45;9.43;;;5.28;;
51556;SDS011;38766;53.194;5.532;2023-12-14T00:45:10;10.63;;;5.35;;
51556;SDS011;38766;53.194;5.532;2023-12-14T00:47:36;13.75;;;5.10;;
51556;SDS011;38766;53.194;5.532;2023-12-14T00:50:02;12.65;;;5.13;;
51556;SDS011;38766;53.194;5.532;2023-12-14T00:52:27;7.53;;;4.38;;
51556;SDS011;38766;53.194;5.532;2023-12-14T00:54:53;10.60;;;4.90;;
51556;SDS011;38766;53.194;5.532;2023-12-14T00:57:19;10.88;;;5.18;;
51556;SDS011;38766;53.194;5.532;2023-12-14T00:59:44;7.82;;;5.05;;
51556;SDS011;38766;53.194;5.532;2023-12-14T01:02:10;9.65;;;5.07;;
51556;SDS011;38766;53.194;5.532;2023-12-14T01:04:36;8.18;;;4.63;;
51556;SDS011;38766;53.194;5.532;2023-12-14T01:07:02;8.75;;;4.65;;
51556;SDS011;38766;53.194;5.532;2023-12-14T01:09:28;13.50;;;5.68;;
51556;SDS011;38766;53.194;5.532;2023-12-14T01:11:54;10.48;;;4.70;;
51556;SDS011;38766;53.194;5.532;2023-12-14T01:14:20;13.82;;;5.00;;
51556;SDS011;38766;53.194;5.532;2023-12-14T01:16:45;11.68;;;4.63;;
51556;SDS011;38766;53.194;5.532;2023-12-14T01:19:11;11.32;;;5.07;;
51556;SDS011;38766;53.194;5.532;2023-12-14T01:21:37;8.82;;;4.68;;
51556;SDS011;38766;53.194;5.532;2023-12-14T01:24:02;10.38;;;5.07;;
51556;SDS011;38766;53.194;5.532;2023-12-14T01:26:28;15.10;;;5.88;;
51556;SDS011;38766;53.194;5.532;2023-12-14T01:28:54;12.38;;;5.43;;
51556;SDS011;38766;53.194;5.532;2023-12-14T01:31:19;9.40;;;5.13;;
51556;SDS011;38766;53.194;5.532;2023-12-14T01:33:48;11.98;;;5.97;;
51556;SDS011;38766;53.194;5.532;2023-12-14T01:36:23;10.18;;;5.40;;
51556;SDS011;38766;53.194;5.532;2023-12-14T01:38:50;9.32;;;5.45;;
51556;SDS011;38766;53.194;5.532;2023-12-14T01:41:18;9.98;;;5.50;;
51556;SDS011;38766;53.194;5.532;2023-12-14T01:43:44;10.07;;;5.43;;
51556;SDS011;38766;53.194;5.532;2023-12-14T01:46:10;9.65;;;5.38;;
51556;SDS011;38766;53.194;5.532;2023-12-14T01:48:36;8.68;;;4.72;;
51556;SDS011;38766;53.194;5.532;2023-12-14T01:51:02;14.00;;;5.55;;
51556;SDS011;38766;53.194;5.532;2023-12-14T01:53:28;9.35;;;5.18;;
51556;SDS011;38766;53.194;5.532;2023-12-14T01:55:54;9.40;;;5.47;;
51556;SDS011;38766;53.194;5.532;2023-12-14T01:58:19;10.68;;;5.35;;
51556;SDS011;38766;53.194;5.532;2023-12-14T02:00:50;9.07;;;5.55;;
51556;SDS011;38766;53.194;5.532;2023-12-14T02:03:36;10.63;;;5.10;;
51556;SDS011;38766;53.194;5.532;2023-12-14T02:06:08;11.98;;;4.80;;
51556;SDS011;38766;53.194;5.532;2023-12-14T02:08:34;9.75;;;4.55;;
51556;SDS011;38766;53.194;5.532;2023-12-14T02:10:59;10.70;;;5.18;;
51556;SDS011;38766;53.194;5.532;2023-12-14T02:13:25;9.93;;;5.60;;
51556;SDS011;38766;53.194;5.532;2023-12-14T02:15:51;10.52;;;5.22;;
51556;SDS011;38766;53.194;5.532;2023-12-14T02:18:18;15.95;;;5.47;;
51556;SDS011;38766;53.194;5.532;2023-12-14T02:20:44;12.43;;;6.00;;
51556;SDS011;38766;53.194;5.532;2023-12-14T02:23:10;8.43;;;5.07;;
51556;SDS011;38766;53.194;5.532;2023-12-14T02:25:35;12.68;;;5.35;;
51556;SDS011;38766;53.194;5.532;2023-12-14T02:28:01;10.38;;;4.95;;
51556;SDS011;38766;53.194;5.532;2023-12-14T02:30:26;11.38;;;5.32;;
51556;SDS011;38766;53.194;5.532;2023-12-14T02:32:52;9.82;;;5.20;;
51556;SDS011;38766;53.194;5.532;2023-12-14T02:35:18;10.43;;;5.38;;
51556;SDS011;38766;53.194;5.532;2023-12-14T02:37:43;11.10;;;5.72;;
51556;SDS011;38766;53.194;5.532;2023-12-14T02:40:09;15.77;;;5.80;;
51556;SDS011;38766;53.194;5.532;2023-12-14T02:42:35;13.43;;;5.40;;
51556;SDS011;38766;53.194;5.532;2023-12-14T02:45:01;14.98;;;5.32;;
51556;SDS011;38766;53.194;5.532;2023-12-14T02:47:27;10.43;;;5.13;;
51556;SDS011;38766;53.194;5.532;2023-12-14T02:49:54;11.05;;;5.10;;
51556;SDS011;38766;53.194;5.532;2023-12-14T02:52:20;9.82;;;5.15;;
51556;SDS011;38766;53.194;5.532;2023-12-14T02:54:46;9.02;;;4.95;;
51556;SDS011;38766;53.194;5.532;2023-12-14T02:57:11;10.98;;;5.13;;
51556;SDS011;38766;53.194;5.532;2023-12-14T02:59:37;6.40;;;4.43;;
51556;SDS011;38766;53.194;5.532;2023-12-14T03:02:03;11.02;;;4.43;;
51556;SDS011;38766;53.194;5.532;2023-12-14T03:04:28;11.75;;;5.53;;
51556;SDS011;38766;53.194;5.532;2023-12-14T03:06:54;9.90;;;5.20;;
51556;SDS011;38766;53.194;5.532;2023-12-14T03:09:21;15.25;;;5.57;;
51556;SDS011;38766;53.194;5.532;2023-12-14T03:11:47;11.20;;;5.32;;
51556;SDS011;38766;53.194;5.532;2023-12-14T03:14:13;10.50;;;4.70;;
51556;SDS011;38766;53.194;5.532;2023-12-14T03:16:38;10.23;;;4.93;;
51556;SDS011;38766;53.194;5.532;2023-12-14T03:19:04;12.65;;;5.18;;
51556;SDS011;38766;53.194;5.532;2023-12-14T03:21:30;12.63;;;5.30;;
51556;SDS011;38766;53.194;5.532;2023-12-14T03:23:56;10.70;;;4.95;;
51556;SDS011;38766;53.194;5.532;2023-12-14T03:26:21;11.20;;;5.55;;
51556;SDS011;38766;53.194;5.532;2023-12-14T03:28:47;14.00;;;5.50;;
51556;SDS011;38766;53.194;5.532;2023-12-14T03:31:13;7.53;;;5.15;;
51556;SDS011;38766;53.194;5.532;2023-12-14T03:33:39;14.50;;;5.90;;
51556;SDS011;38766;53.194;5.532;2023-12-14T03:36:05;14.15;;;5.90;;
51556;SDS011;38766;53.194;5.532;2023-12-14T03:38:31;12.40;;;6.72;;
51556;SDS011;38766;53.194;5.532;2023-12-14T03:40:58;11.77;;;6.15;;
51556;SDS011;38766;53.194;5.532;2023-12-14T03:43:23;10.70;;;6.68;;
51556;SDS011;38766;53.194;5.532;2023-12-14T03:45:49;13.18;;;6.38;;
51556;SDS011;38766;53.194;5.532;2023-12-14T03:48:14;14.60;;;6.45;;
51556;SDS011;38766;53.194;5.532;2023-12-14T03:50:40;14.55;;;6.88;;
51556;SDS011;38766;53.194;5.532;2023-12-14T03:53:06;14.48;;;6.50;;
51556;SDS011;38766;53.194;5.532;2023-12-14T03:55:32;11.90;;;6.00;;
51556;SDS011;38766;53.194;5.532;2023-12-14T03:57:58;11.98;;;6.13;;
51556;SDS011;38766;53.194;5.532;2023-12-14T04:00:23;10.38;;;6.30;;
51556;SDS011;38766;53.194;5.532;2023-12-14T04:02:49;13.48;;;6.95;;
51556;SDS011;38766;53.194;5.532;2023-12-14T04:05:15;13.07;;;7.05;;
51556;SDS011;38766;53.194;5.532;2023-12-14T04:07:40;12.00;;;7.18;;
51556;SDS011;38766;53.194;5.532;2023-12-14T04:10:10;11.52;;;6.93;;
51556;SDS011;38766;53.194;5.532;2023-12-14T04:12:36;14.43;;;7.47;;
51556;SDS011;38766;53.194;5.532;2023-12-14T04:15:06;12.63;;;7.13;;
51556;SDS011;38766;53.194;5.532;2023-12-14T04:17:34;14.70;;;7.47;;
51556;SDS011;38766;53.194;5.532;2023-12-14T04:20:00;12.57;;;7.35;;
51556;SDS011;38766;53.194;5.532;2023-12-14T04:22:27;12.50;;;7.00;;
51556;SDS011;38766;53.194;5.532;2023-12-14T04:24:53;12.07;;;6.93;;
51556;SDS011;38766;53.194;5.532;2023-12-14T04:27:19;15.27;;;7.80;;
51556;SDS011;38766;53.194;5.532;2023-12-14T04:29:45;13.10;;;7.60;;
51556;SDS011;38766;53.194;5.532;2023-12-14T04:32:11;16.33;;;7.93;;
51556;SDS011;38766;53.194;5.532;2023-12-14T04:34:36;13.30;;;7.45;;
51556;SDS011;38766;53.194;5.532;2023-12-14T04:37:02;13.95;;;7.15;;
51556;SDS011;38766;53.194;5.532;2023-12-14T04:39:28;15.52;;;7.85;;
51556;SDS011;38766;53.194;5.532;2023-12-14T04:41:54;13.95;;;6.95;;
51556;SDS011;38766;53.194;5.532;2023-12-14T04:44:20;16.95;;;7.63;;
51556;SDS011;38766;53.194;5.532;2023-12-14T04:46:48;15.75;;;6.82;;
51556;SDS011;38766;53.194;5.532;2023-12-14T04:49:14;19.95;;;7.68;;
51556;SDS011;38766;53.194;5.532;2023-12-14T04:51:40;12.82;;;6.90;;
51556;SDS011;38766;53.194;5.532;2023-12-14T04:54:05;12.77;;;6.57;;
51556;SDS011;38766;53.194;5.532;2023-12-14T04:56:31;12.00;;;6.55;;
51556;SDS011;38766;53.194;5.532;2023-12-14T04:58:57;13.70;;;7.32;;
51556;SDS011;38766;53.194;5.532;2023-12-14T05:01:23;13.23;;;6.82;;
51556;SDS011;38766;53.194;5.532;2023-12-14T05:03:51;16.88;;;6.80;;
51556;SDS011;38766;53.194;5.532;2023-12-14T05:06:17;14.88;;;7.43;;
51556;SDS011;38766;53.194;5.532;2023-12-14T05:08:43;13.93;;;7.55;;
51556;SDS011;38766;53.194;5.532;2023-12-14T05:11:08;17.20;;;8.35;;
51556;SDS011;38766;53.194;5.532;2023-12-14T05:13:34;16.73;;;7.28;;
51556;SDS011;38766;53.194;5.532;2023-12-14T05:16:00;15.20;;;7.03;;
51556;SDS011;38766;53.194;5.532;2023-12-14T05:18:26;16.50;;;7.50;;
51556;SDS011;38766;53.194;5.532;2023-12-14T05:20:52;17.55;;;7.82;;
51556;SDS011;38766;53.194;5.532;2023-12-14T05:23:18;13.52;;;6.80;;
51556;SDS011;38766;53.194;5.532;2023-12-14T05:25:44;18.92;;;6.93;;
51556;SDS011;38766;53.194;5.532;2023-12-14T05:28:10;16.23;;;7.82;;
51556;SDS011;38766;53.194;5.532;2023-12-14T05:30:35;14.10;;;6.63;;
51556;SDS011;38766;53.194;5.532;2023-12-14T05:33:01;16.73;;;7.97;;
51556;SDS011;38766;53.194;5.532;2023-12-14T05:35:27;16.88;;;7.28;;
51556;SDS011;38766;53.194;5.532;2023-12-14T05:37:52;13.55;;;7.15;;
51556;SDS011;38766;53.194;5.532;2023-12-14T05:40:18;13.82;;;7.40;;
51556;SDS011;38766;53.194;5.532;2023-12-14T05:42:44;17.60;;;7.47;;
51556;SDS011;38766;53.194;5.532;2023-12-14T05:45:10;16.75;;;6.50;;
51556;SDS011;38766;53.194;5.532;2023-12-14T05:47:35;18.10;;;7.55;;
51556;SDS011;38766;53.194;5.532;2023-12-14T05:50:02;24.20;;;7.05;;
51556;SDS011;38766;53.194;5.532;2023-12-14T05:52:29;12.68;;;7.38;;
51556;SDS011;38766;53.194;5.532;2023-12-14T05:54:54;13.70;;;7.32;;
51556;SDS011;38766;53.194;5.532;2023-12-14T05:57:20;20.30;;;7.25;;
51556;SDS011;38766;53.194;5.532;2023-12-14T05:59:45;15.93;;;6.85;;
51556;SDS011;38766;53.194;5.532;2023-12-14T06:02:11;13.90;;;8.00;;
51556;SDS011;38766;53.194;5.532;2023-12-14T06:04:37;19.70;;;7.68;;
51556;SDS011;38766;53.194;5.532;2023-12-14T06:07:02;15.23;;;6.78;;
51556;SDS011;38766;53.194;5.532;2023-12-14T06:09:28;19.92;;;7.80;;
51556;SDS011;38766;53.194;5.532;2023-12-14T06:12:03;19.13;;;8.30;;
51556;SDS011;38766;53.194;5.532;2023-12-14T06:14:30;14.82;;;8.57;;
51556;SDS011;38766;53.194;5.532;2023-12-14T06:16:56;14.52;;;7.38;;
51556;SDS011;38766;53.194;5.532;2023-12-14T06:19:23;18.17;;;8.40;;
51556;SDS011;38766;53.194;5.532;2023-12-14T06:21:49;18.05;;;7.13;;
51556;SDS011;38766;53.194;5.532;2023-12-14T06:24:15;18.05;;;7.72;;
51556;SDS011;38766;53.194;5.532;2023-12-14T06:26:46;16.27;;;7.43;;
51556;SDS011;38766;53.194;5.532;2023-12-14T06:29:12;19.70;;;7.38;;
51556;SDS011;38766;53.194;5.532;2023-12-14T06:31:38;12.45;;;7.60;;
51556;SDS011;38766;53.194;5.532;2023-12-14T06:34:05;13.93;;;7.20;;
51556;SDS011;38766;53.194;5.532;2023-12-14T06:36:31;15.63;;;7.90;;
51556;SDS011;38766;53.194;5.532;2023-12-14T06:38:57;16.45;;;7.63;;
51556;SDS011;38766;53.194;5.532;2023-12-14T06:41:24;17.13;;;8.25;;
51556;SDS011;38766;53.194;5.532;2023-12-14T06:43:51;17.67;;;8.32;;
51556;SDS011;38766;53.194;5.532;2023-12-14T06:46:17;16.38;;;8.93;;
51556;SDS011;38766;53.194;5.532;2023-12-14T06:48:43;18.48;;;8.45;;
51556;SDS011;38766;53.194;5.532;2023-12-14T06:51:10;20.58;;;8.30;;
51556;SDS011;38766;53.194;5.532;2023-12-14T06:53:35;23.60;;;8.68;;
51556;SDS011;38766;53.194;5.532;2023-12-14T06:56:04;16.60;;;8.15;;
51556;SDS011;38766;53.194;5.532;2023-12-14T06:58:29;14.65;;;7.70;;
51556;SDS011;38766;53.194;5.532;2023-12-14T07:00:56;15.40;;;8.32;;
51556;SDS011;38766;53.194;5.532;2023-12-14T07:03:22;15.57;;;8.38;;
51556;SDS011;38766;53.194;5.532;2023-12-14T07:05:47;18.73;;;8.32;;
51556;SDS011;38766;53.194;5.532;2023-12-14T07:08:13;15.48;;;8.20;;
51556;SDS011;38766;53.194;5.532;2023-12-14T07:10:41;15.88;;;8.45;;
51556;SDS011;38766;53.194;5.532;2023-12-14T07:13:07;15.32;;;8.50;;
51556;SDS011;38766;53.194;5.532;2023-12-14T07:15:33;17.13;;;9.10;;
51556;SDS011;38766;53.194;5.532;2023-12-14T07:17:59;16.42;;;9.07;;
51556;SDS011;38766;53.194;5.532;2023-12-14T07:20:24;13.93;;;8.15;;
51556;SDS011;38766;53.194;5.532;2023-12-14T07:22:50;21.52;;;10.00;;
51556;SDS011;38766;53.194;5.532;2023-12-14T07:25:15;16.42;;;9.30;;
51556;SDS011;38766;53.194;5.532;2023-12-14T07:27:41;20.85;;;9.35;;
51556;SDS011;38766;53.194;5.532;2023-12-14T07:30:08;16.92;;;8.77;;
51556;SDS011;38766;53.194;5.532;2023-12-14T07:32:34;14.55;;;9.30;;
51556;SDS011;38766;53.194;5.532;2023-12-14T07:35:00;20.42;;;9.60;;
51556;SDS011;38766;53.194;5.532;2023-12-14T07:37:25;37.58;;;18.45;;
51556;SDS011;38766;53.194;5.532;2023-12-14T07:39:51;59.95;;;34.17;;
51556;SDS011;38766;53.194;5.532;2023-12-14T07:42:17;58.30;;;32.80;;
51556;SDS011;38766;53.194;5.532;2023-12-14T07:44:45;62.55;;;33.00;;
51556;SDS011;38766;53.194;5.532;2023-12-14T07:47:11;48.72;;;27.52;;
51556;SDS011;38766;53.194;5.532;2023-12-14T07:49:37;37.78;;;24.45;;
51556;SDS011;38766;53.194;5.532;2023-12-14T07:52:02;24.10;;;13.32;;
51556;SDS011;38766;53.194;5.532;2023-12-14T07:54:28;19.50;;;10.55;;
51556;SDS011;38766;53.194;5.532;2023-12-14T07:56:54;17.45;;;9.93;;
51556;SDS011;38766;53.194;5.532;2023-12-14T07:59:20;23.13;;;9.80;;
51556;SDS011;38766;53.194;5.532;2023-12-14T08:01:46;18.67;;;9.95;;
51556;SDS011;38766;53.194;5.532;2023-12-14T08:04:11;18.33;;;9.93;;
51556;SDS011;38766;53.194;5.532;2023-12-14T08:06:37;21.42;;;9.30;;
51556;SDS011;38766;53.194;5.532;2023-12-14T08:09:04;14.18;;;9.25;;
51556;SDS011;38766;53.194;5.532;2023-12-14T08:11:33;19.13;;;9.65;;
51556;SDS011;38766;53.194;5.532;2023-12-14T08:13:59;18.40;;;8.63;;
51556;SDS011;38766;53.194;5.532;2023-12-14T08:16:24;17.65;;;9.18;;
51556;SDS011;38766;53.194;5.532;2023-12-14T08:18:50;20.92;;;10.27;;
51556;SDS011;38766;53.194;5.532;2023-12-14T08:21:18;16.20;;;9.35;;
51556;SDS011;38766;53.194;5.532;2023-12-14T08:23:43;18.45;;;9.25;;
51556;SDS011;38766;53.194;5.532;2023-12-14T08:26:10;19.63;;;8.57;;
51556;SDS011;38766;53.194;5.532;2023-12-14T08:28:38;18.27;;;9.63;;
51556;SDS011;38766;53.194;5.532;2023-12-14T08:31:04;16.10;;;9.55;;
51556;SDS011;38766;53.194;5.532;2023-12-14T08:33:30;21.33;;;9.40;;
51556;SDS011;38766;53.194;5.532;2023-12-14T08:35:56;26.95;;;11.70;;
51556;SDS011;38766;53.194;5.532;2023-12-14T08:38:22;22.92;;;11.13;;
51556;SDS011;38766;53.194;5.532;2023-12-14T08:40:47;21.23;;;12.02;;
51556;SDS011;38766;53.194;5.532;2023-12-14T08:43:13;21.35;;;10.88;;
51556;SDS011;38766;53.194;5.532;2023-12-14T08:45:39;23.58;;;11.57;;
51556;SDS011;38766;53.194;5.532;2023-12-14T08:48:04;18.67;;;9.95;;
51556;SDS011;38766;53.194;5.532;2023-12-14T08:50:30;16.88;;;9.18;;
51556;SDS011;38766;53.194;5.532;2023-12-14T08:52:56;17.13;;;10.02;;
51556;SDS011;38766;53.194;5.532;2023-12-14T08:55:25;20.95;;;10.77;;
51556;SDS011;38766;53.194;5.532;2023-12-14T08:57:51;24.58;;;9.98;;
51556;SDS011;38766;53.194;5.532;2023-12-14T09:00:17;20.35;;;9.90;;
51556;SDS011;38766;53.194;5.532;2023-12-14T09:02:44;22.85;;;10.73;;
51556;SDS011;38766;53.194;5.532;2023-12-14T09:05:11;14.95;;;9.43;;
51556;SDS011;38766;53.194;5.532;2023-12-14T09:07:38;20.20;;;9.13;;
51556;SDS011;38766;53.194;5.532;2023-12-14T09:10:04;19.13;;;9.75;;
51556;SDS011;38766;53.194;5.532;2023-12-14T09:12:31;21.40;;;9.80;;
51556;SDS011;38766;53.194;5.532;2023-12-14T09:14:58;23.65;;;10.32;;
51556;SDS011;38766;53.194;5.532;2023-12-14T09:17:24;18.63;;;10.07;;
51556;SDS011;38766;53.194;5.532;2023-12-14T09:19:49;16.05;;;9.68;;
51556;SDS011;38766;53.194;5.532;2023-12-14T09:22:15;16.92;;;9.57;;
51556;SDS011;38766;53.194;5.532;2023-12-14T09:24:41;20.45;;;10.13;;
51556;SDS011;38766;53.194;5.532;2023-12-14T09:27:06;18.50;;;9.02;;
51556;SDS011;38766;53.194;5.532;2023-12-14T09:29:32;18.77;;;9.52;;
51556;SDS011;38766;53.194;5.532;2023-12-14T09:31:58;15.15;;;9.07;;
51556;SDS011;38766;53.194;5.532;2023-12-14T09:34:23;17.30;;;9.15;;
51556;SDS011;38766;53.194;5.532;2023-12-14T09:36:49;16.88;;;9.02;;
51556;SDS011;38766;53.194;5.532;2023-12-14T09:39:15;16.10;;;9.45;;
51556;SDS011;38766;53.194;5.532;2023-12-14T09:41:40;13.07;;;7.97;;
51556;SDS011;38766;53.194;5.532;2023-12-14T09:44:06;14.10;;;8.10;;
51556;SDS011;38766;53.194;5.532;2023-12-14T09:46:36;15.30;;;7.63;;
51556;SDS011;38766;53.194;5.532;2023-12-14T09:49:02;12.35;;;7.13;;
51556;SDS011;38766;53.194;5.532;2023-12-14T09:51:29;11.70;;;7.15;;
51556;SDS011;38766;53.194;5.532;2023-12-14T09:53:55;12.23;;;7.38;;
51556;SDS011;38766;53.194;5.532;2023-12-14T09:56:26;12.18;;;7.28;;
51556;SDS011;38766;53.194;5.532;2023-12-14T09:58:55;15.50;;;8.30;;
51556;SDS011;38766;53.194;5.532;2023-12-14T10:01:25;14.63;;;8.27;;
51556;SDS011;38766;53.194;5.532;2023-12-14T10:04:11;14.07;;;7.45;;
51556;SDS011;38766;53.194;5.532;2023-12-14T10:06:42;12.23;;;7.70;;
51556;SDS011;38766;53.194;5.532;2023-12-14T10:09:09;15.30;;;7.53;;
51556;SDS011;38766;53.194;5.532;2023-12-14T10:11:38;11.82;;;6.95;;
51556;SDS011;38766;53.194;5.532;2023-12-14T10:14:26;11.45;;;6.38;;
51556;SDS011;38766;53.194;5.532;2023-12-14T10:16:51;13.13;;;6.95;;
51556;SDS011;38766;53.194;5.532;2023-12-14T10:19:17;14.95;;;6.38;;
51556;SDS011;38766;53.194;5.532;2023-12-14T10:21:45;15.15;;;6.60;;
51556;SDS011;38766;53.194;5.532;2023-12-14T10:24:12;11.80;;;7.13;;
51556;SDS011;38766;53.194;5.532;2023-12-14T10:26:38;13.73;;;7.28;;
51556;SDS011;38766;53.194;5.532;2023-12-14T10:29:04;12.15;;;8.38;;
51556;SDS011;38766;53.194;5.532;2023-12-14T10:31:30;12.50;;;7.78;;
51556;SDS011;38766;53.194;5.532;2023-12-14T10:33:56;14.05;;;7.50;;
51556;SDS011;38766;53.194;5.532;2023-12-14T10:36:24;17.42;;;7.80;;
51556;SDS011;38766;53.194;5.532;2023-12-14T10:38:53;13.13;;;7.28;;
51556;SDS011;38766;53.194;5.532;2023-12-14T10:41:22;16.85;;;7.35;;
51556;SDS011;38766;53.194;5.532;2023-12-14T10:43:50;12.52;;;6.93;;
51556;SDS011;38766;53.194;5.532;2023-12-14T10:46:19;13.38;;;8.32;;
51556;SDS011;38766;53.194;5.532;2023-12-14T10:48:47;13.73;;;6.32;;
51556;SDS011;38766;53.194;5.532;2023-12-14T10:51:14;10.07;;;6.40;;
51556;SDS011;38766;53.194;5.532;2023-12-14T10:53:43;18.52;;;7.13;;
51556;SDS011;38766;53.194;5.532;2023-12-14T10:56:12;14.52;;;7.35;;
51556;SDS011;38766;53.194;5.532;2023-12-14T10:58:45;16.42;;;7.38;;
51556;SDS011;38766;53.194;5.532;2023-12-14T11:03:40;21.98;;;7.32;;
51556;SDS011;38766;53.194;5.532;2023-12-14T11:06:19;14.07;;;6.75;;
51556;SDS011;38766;53.194;5.532;2023-12-14T11:09:00;13.98;;;6.55;;
51556;SDS011;38766;53.194;5.532;2023-12-14T11:11:40;11.10;;;6.30;;
51556;SDS011;38766;53.194;5.532;2023-12-14T11:14:10;12.65;;;6.15;;
51556;SDS011;38766;53.194;5.532;2023-12-14T11:16:38;11.63;;;6.53;;
51556;SDS011;38766;53.194;5.532;2023-12-14T11:21:47;14.93;;;6.50;;
51556;SDS011;38766;53.194;5.532;2023-12-14T11:24:13;11.75;;;6.07;;
51556;SDS011;38766;53.194;5.532;2023-12-14T11:26:39;15.10;;;6.82;;
51556;SDS011;38766;53.194;5.532;2023-12-14T11:29:06;15.90;;;6.15;;
51556;SDS011;38766;53.194;5.532;2023-12-14T11:31:32;16.55;;;6.05;;
51556;SDS011;38766;53.194;5.532;2023-12-14T11:33:58;12.95;;;6.53;;
51556;SDS011;38766;53.194;5.532;2023-12-14T11:36:26;10.70;;;6.25;;
51556;SDS011;38766;53.194;5.532;2023-12-14T11:38:52;11.93;;;6.20;;
51556;SDS011;38766;53.194;5.532;2023-12-14T11:41:20;14.93;;;5.82;;
51556;SDS011;38766;53.194;5.532;2023-12-14T11:43:46;10.40;;;5.85;;
51556;SDS011;38766;53.194;5.532;2023-12-14T11:46:12;8.52;;;5.40;;
51556;SDS011;38766;53.194;5.532;2023-12-14T11:48:40;9.73;;;5.40;;
51556;SDS011;38766;53.194;5.532;2023-12-14T11:51:09;8.05;;;4.80;;
51556;SDS011;38766;53.194;5.532;2023-12-14T11:53:35;10.05;;;5.05;;
51556;SDS011;38766;53.194;5.532;2023-12-14T11:56:04;8.55;;;4.75;;
51556;SDS011;38766;53.194;5.532;2023-12-14T11:58:31;9.20;;;5.63;;
51556;SDS011;38766;53.194;5.532;2023-12-14T12:01:15;15.35;;;7.55;;
51556;SDS011;38766;53.194;5.532;2023-12-14T12:03:42;9.00;;;5.55;;
51556;SDS011;38766;53.194;5.532;2023-12-14T12:06:19;11.18;;;5.15;;
51556;SDS011;38766;53.194;5.532;2023-12-14T12:08:49;11.15;;;5.80;;
51556;SDS011;38766;53.194;5.532;2023-12-14T12:11:18;8.63;;;5.10;;
51556;SDS011;38766;53.194;5.532;2023-12-14T12:13:49;8.60;;;5.10;;
51556;SDS011;38766;53.194;5.532;2023-12-14T12:16:19;12.20;;;5.85;;
51556;SDS011;38766;53.194;5.532;2023-12-14T12:18:45;14.05;;;6.45;;
51556;SDS011;38766;53.194;5.532;2023-12-14T12:21:13;11.95;;;6.32;;
51556;SDS011;38766;53.194;5.532;2023-12-14T12:23:39;11.93;;;5.75;;
51556;SDS011;38766;53.194;5.532;2023-12-14T12:26:07;8.63;;;5.13;;
51556;SDS011;38766;53.194;5.532;2023-12-14T12:28:32;10.65;;;5.97;;
51556;SDS011;38766;53.194;5.532;2023-12-14T12:30:58;8.05;;;5.18;;
51556;SDS011;38766;53.194;5.532;2023-12-14T12:33:25;10.65;;;5.47;;
51556;SDS011;38766;53.194;5.532;2023-12-14T12:35:51;11.57;;;5.88;;
51556;SDS011;38766;53.194;5.532;2023-12-14T12:38:17;9.30;;;5.13;;
51556;SDS011;38766;53.194;5.532;2023-12-14T12:40:44;11.48;;;6.22;;
51556;SDS011;38766;53.194;5.532;2023-12-14T12:43:09;12.20;;;6.35;;
51556;SDS011;38766;53.194;5.532;2023-12-14T12:45:35;10.65;;;6.10;;
51556;SDS011;38766;53.194;5.532;2023-12-14T12:48:01;10.70;;;5.53;;
51556;SDS011;38766;53.194;5.532;2023-12-14T12:50:32;12.27;;;6.78;;
51556;SDS011;38766;53.194;5.532;2023-12-14T12:52:58;8.35;;;5.38;;
51556;SDS011;38766;53.194;5.532;2023-12-14T12:55:24;10.20;;;5.38;;
51556;SDS011;38766;53.194;5.532;2023-12-14T12:57:49;12.48;;;5.97;;
51556;SDS011;38766;53.194;5.532;2023-12-14T13:00:15;9.32;;;6.25;;
51556;SDS011;38766;53.194;5.532;2023-12-14T13:02:41;10.57;;;5.43;;
51556;SDS011;38766;53.194;5.532;2023-12-14T13:05:09;9.25;;;5.82;;
51556;SDS011;38766;53.194;5.532;2023-12-14T13:07:35;11.38;;;6.63;;
51556;SDS011;38766;53.194;5.532;2023-12-14T13:10:02;8.77;;;6.03;;
51556;SDS011;38766;53.194;5.532;2023-12-14T13:12:29;11.25;;;6.45;;
51556;SDS011;38766;53.194;5.532;2023-12-14T13:14:55;9.40;;;6.22;;
51556;SDS011;38766;53.194;5.532;2023-12-14T13:17:20;10.30;;;6.63;;
51556;SDS011;38766;53.194;5.532;2023-12-14T13:19:47;11.57;;;6.63;;
51556;SDS011;38766;53.194;5.532;2023-12-14T13:22:12;9.88;;;5.82;;
51556;SDS011;38766;53.194;5.532;2023-12-14T13:24:38;13.07;;;7.03;;
51556;SDS011;38766;53.194;5.532;2023-12-14T13:27:04;13.48;;;6.95;;
51556;SDS011;38766;53.194;5.532;2023-12-14T13:29:30;11.52;;;7.38;;
51556;SDS011;38766;53.194;5.532;2023-12-14T13:31:57;9.90;;;5.97;;
51556;SDS011;38766;53.194;5.532;2023-12-14T13:34:24;10.13;;;5.88;;
51556;SDS011;38766;53.194;5.532;2023-12-14T13:36:50;12.43;;;6.78;;
51556;SDS011;38766;53.194;5.532;2023-12-14T13:39:16;11.15;;;6.80;;
51556;SDS011;38766;53.194;5.532;2023-12-14T13:41:41;12.65;;;6.57;;
51556;SDS011;38766;53.194;5.532;2023-12-14T13:44:07;12.55;;;6.82;;
51556;SDS011;38766;53.194;5.532;2023-12-14T13:46:32;14.07;;;6.93;;
51556;SDS011;38766;53.194;5.532;2023-12-14T13:48:58;9.40;;;5.93;;
51556;SDS011;38766;53.194;5.532;2023-12-14T13:51:23;15.52;;;6.18;;
51556;SDS011;38766;53.194;5.532;2023-12-14T13:53:49;10.32;;;6.65;;
51556;SDS011;38766;53.194;5.532;2023-12-14T13:56:15;10.82;;;6.68;;
51556;SDS011;38766;53.194;5.532;2023-12-14T13:58:40;11.90;;;7.43;;
51556;SDS011;38766;53.194;5.532;2023-12-14T14:01:06;13.95;;;7.55;;
51556;SDS011;38766;53.194;5.532;2023-12-14T14:03:33;13.48;;;8.05;;
51556;SDS011;38766;53.194;5.532;2023-12-14T14:06:00;13.95;;;7.57;;
51556;SDS011;38766;53.194;5.532;2023-12-14T14:08:27;15.30;;;7.82;;
51556;SDS011;38766;53.194;5.532;2023-12-14T14:10:52;17.77;;;7.97;;
51556;SDS011;38766;53.194;5.532;2023-12-14T14:13:18;17.00;;;7.53;;
51556;SDS011;38766;53.194;5.532;2023-12-14T14:15:45;15.15;;;8.02;;
51556;SDS011;38766;53.194;5.532;2023-12-14T14:18:11;13.50;;;7.75;;
51556;SDS011;38766;53.194;5.532;2023-12-14T14:20:36;18.90;;;8.38;;
51556;SDS011;38766;53.194;5.532;2023-12-14T14:23:02;19.02;;;8.20;;
51556;SDS011;38766;53.194;5.532;2023-12-14T14:25:27;15.82;;;7.55;;
51556;SDS011;38766;53.194;5.532;2023-12-14T14:27:53;12.07;;;7.82;;
51556;SDS011;38766;53.194;5.532;2023-12-14T14:30:19;12.82;;;7.75;;
51556;SDS011;38766;53.194;5.532;2023-12-14T14:32:45;17.25;;;8.27;;
51556;SDS011;38766;53.194;5.532;2023-12-14T14:35:11;12.68;;;7.40;;
51556;SDS011;38766;53.194;5.532;2023-12-14T14:37:36;13.80;;;8.68;;